Terminal Aerodrome Forecast
Issued by NWS Charleston, WV

Current Version | Previous Version | Graphics & Text | Print | Product List | Glossary On
Versions: 1 2 3 4 5 6 7 8 9 10 11 12 13 14 15 16 17 18 19 20 21 22 23 24
646
FTUS41 KRLX 221720
TAFEKN
TAF
KEKN 221720Z 2218/2318 19006KT P6SM FEW250
     FM230900 15003KT 5SM BR BKN070
     FM231200 15008KT P6SM BKN120
     FM231600 15012G18KT P6SM OVC140=

USA.gov is the U.S. government's official web portal to all federal, state and local government web resources and services.